createdAt,value
2022-10-18T00:00:05.111Z,8.30
2022-10-18T00:03:47.049Z,8.20
2022-10-18T00:07:29.484Z,8.20
2022-10-18T00:11:11.654Z,8.20
2022-10-18T00:14:53.586Z,8.10
2022-10-18T00:18:35.459Z,8.10
2022-10-18T00:22:20.201Z,8.00
2022-10-18T00:26:08.344Z,7.90
2022-10-18T00:29:53.449Z,7.90
2022-10-18T00:33:35.301Z,7.80
2022-10-18T00:37:17.769Z,7.80
2022-10-18T00:40:59.661Z,7.70
2022-10-18T00:44:41.588Z,7.60
2022-10-18T00:48:23.789Z,7.60
2022-10-18T00:52:17.580Z,7.60
2022-10-18T00:55:59.492Z,7.60
2022-10-18T00:59:42.745Z,7.70
2022-10-18T01:03:24.683Z,7.70
2022-10-18T01:07:27.917Z,7.70
2022-10-18T01:11:28.573Z,7.70
2022-10-18T01:15:31.360Z,7.70
2022-10-18T01:19:21.812Z,7.70
2022-10-18T01:23:20.930Z,7.70
2022-10-18T01:27:46.745Z,7.70
2022-10-18T01:31:44.447Z,7.60
2022-10-18T01:35:36.374Z,7.70
2022-10-18T01:39:26.666Z,7.70
2022-10-18T01:43:10.473Z,7.70
2022-10-18T01:46:54.266Z,7.70
2022-10-18T01:50:36.244Z,7.70
2022-10-18T01:54:26.863Z,7.60
2022-10-18T01:58:20.914Z,7.60
2022-10-18T02:02:08.294Z,7.60
2022-10-18T02:06:10.813Z,7.50
2022-10-18T02:10:06.690Z,7.50
2022-10-18T02:13:55.513Z,7.50
2022-10-18T02:17:39.154Z,7.50
2022-10-18T02:21:22.628Z,7.60
2022-10-18T02:25:10.385Z,7.60
2022-10-18T02:28:52.436Z,7.60
2022-10-18T02:32:40.211Z,7.60
2022-10-18T02:36:34.715Z,7.60
2022-10-18T02:40:17.374Z,7.60
2022-10-18T02:43:59.235Z,7.70
2022-10-18T02:47:41.209Z,7.70
2022-10-18T02:51:23.489Z,7.60
2022-10-18T02:55:06.533Z,7.60
2022-10-18T02:58:48.423Z,7.60
2022-10-18T03:02:30.322Z,7.60
2022-10-18T03:06:12.193Z,7.50
2022-10-18T03:09:54.153Z,7.50
2022-10-18T03:13:36.015Z,7.40
2022-10-18T03:17:17.978Z,7.40
2022-10-18T03:21:03.603Z,7.40
2022-10-18T03:24:45.607Z,7.40
2022-10-18T03:28:28.019Z,7.40
2022-10-18T03:32:10.056Z,7.40
2022-10-18T03:35:51.901Z,7.40
2022-10-18T03:39:33.782Z,7.40
2022-10-18T03:43:15.853Z,7.40
2022-10-18T03:46:57.782Z,7.40
2022-10-18T03:50:39.679Z,7.40
2022-10-18T03:54:21.572Z,7.40
2022-10-18T03:58:03.678Z,7.30
2022-10-18T04:01:45.664Z,7.30
2022-10-18T04:05:30.628Z,7.40
2022-10-18T04:09:12.609Z,7.40
2022-10-18T04:12:54.955Z,7.40
2022-10-18T04:20:24.889Z,7.30
2022-10-18T04:24:06.849Z,7.30
2022-10-18T04:27:48.714Z,7.30
2022-10-18T04:31:30.909Z,7.30
2022-10-18T04:35:15.811Z,7.40
2022-10-18T04:38:57.701Z,7.30
2022-10-18T04:42:39.600Z,7.40
2022-10-18T04:46:21.477Z,7.40
2022-10-18T04:50:03.845Z,7.50
2022-10-18T04:53:45.730Z,7.50
2022-10-18T04:57:27.771Z,7.50
2022-10-18T05:01:09.646Z,7.50
2022-10-18T05:04:51.868Z,7.60
2022-10-18T05:08:35.443Z,7.50
2022-10-18T05:12:17.505Z,7.50
2022-10-18T05:16:00.323Z,7.50
2022-10-18T05:19:42.288Z,7.50
2022-10-18T05:23:24.465Z,7.50
2022-10-18T05:27:06.291Z,7.60
2022-10-18T05:30:49.172Z,7.50
2022-10-18T05:34:32.094Z,7.60
2022-10-18T05:38:13.976Z,7.60
2022-10-18T05:41:55.863Z,7.50
2022-10-18T05:45:37.765Z,7.50
2022-10-18T05:49:19.723Z,7.50
2022-10-18T05:53:12.048Z,7.50
2022-10-18T05:57:00.294Z,7.50
2022-10-18T06:00:42.242Z,7.50
2022-10-18T06:04:24.090Z,7.50
2022-10-18T06:08:09.451Z,7.40
2022-10-18T06:11:52.309Z,7.40
2022-10-18T06:15:34.219Z,7.40
2022-10-18T06:19:16.065Z,7.30
2022-10-18T06:22:57.950Z,7.30
2022-10-18T06:26:39.856Z,7.30
2022-10-18T06:30:21.769Z,7.20
2022-10-18T06:34:04.459Z,7.20
2022-10-18T06:37:46.316Z,7.20
2022-10-18T06:41:28.174Z,7.20
2022-10-18T06:45:10.360Z,7.20
2022-10-18T06:48:52.266Z,7.20
2022-10-18T06:52:34.356Z,7.20
2022-10-18T06:56:16.809Z,7.10
2022-10-18T06:59:58.731Z,7.20
2022-10-18T07:03:40.681Z,7.20
2022-10-18T07:07:22.560Z,7.20
2022-10-18T07:11:05.508Z,7.20
2022-10-18T07:14:47.440Z,7.20
2022-10-18T07:18:29.452Z,7.20
2022-10-18T07:22:11.354Z,7.20
2022-10-18T07:25:53.275Z,7.20
2022-10-18T07:29:38.182Z,7.30
2022-10-18T07:33:20.888Z,7.30
2022-10-18T07:37:02.818Z,7.30
2022-10-18T07:40:44.650Z,7.30
2022-10-18T07:44:26.674Z,7.40
2022-10-18T07:48:08.511Z,7.40
2022-10-18T07:51:50.401Z,7.50
2022-10-18T07:55:32.251Z,7.50
2022-10-18T07:59:14.347Z,7.60
2022-10-18T08:02:59.554Z,7.70
2022-10-18T08:06:41.447Z,7.70
2022-10-18T08:10:26.844Z,7.80
2022-10-18T08:14:08.773Z,7.90
2022-10-18T08:17:50.874Z,8.00
2022-10-18T08:21:32.762Z,8.10
2022-10-18T08:25:15.533Z,8.20
2022-10-18T08:29:21.065Z,8.30
2022-10-18T08:32:59.305Z,8.40
2022-10-18T08:36:41.165Z,8.60
2022-10-18T08:40:23.309Z,8.70
2022-10-18T08:44:30.327Z,8.80
2022-10-18T08:48:22.076Z,8.90
2022-10-18T08:52:11.075Z,9.00
2022-10-18T08:55:58.515Z,9.10
2022-10-18T08:59:42.136Z,9.20
2022-10-18T09:03:52.782Z,9.40
2022-10-18T09:07:53.884Z,9.50
2022-10-18T09:11:49.250Z,9.70
2022-10-18T09:15:56.769Z,9.80
2022-10-18T09:19:41.561Z,10.00
2022-10-18T09:23:32.314Z,10.30
2022-10-18T09:27:19.034Z,10.50
2022-10-18T09:31:12.081Z,10.70
2022-10-18T09:35:13.477Z,10.80
2022-10-18T09:39:02.580Z,11.00
2022-10-18T09:42:58.412Z,11.10
2022-10-18T09:46:47.895Z,11.30
2022-10-18T09:50:41.213Z,11.60
2022-10-18T09:54:36.724Z,12.00
2022-10-18T09:58:20.538Z,12.20
2022-10-18T10:02:02.650Z,12.40
2022-10-18T10:05:45.134Z,12.60
2022-10-18T10:09:36.275Z,12.80
2022-10-18T10:13:24.417Z,13.00
2022-10-18T10:17:28.844Z,13.10
2022-10-18T10:21:15.984Z,13.30
2022-10-18T10:24:57.924Z,13.90
2022-10-18T10:28:48.783Z,14.70
2022-10-18T10:32:43.250Z,15.20
2022-10-18T10:36:25.325Z,15.60
2022-10-18T10:40:19.294Z,15.90
2022-10-18T10:44:05.242Z,16.10
2022-10-18T10:47:48.798Z,16.40
2022-10-18T10:51:37.551Z,16.70
2022-10-18T10:55:35.426Z,17.20
2022-10-18T10:59:20.067Z,18.30
2022-10-18T11:03:30.575Z,19.70
2022-10-18T11:07:27.139Z,21.20
2022-10-18T11:11:16.960Z,22.00
2022-10-18T11:15:11.796Z,22.90
2022-10-18T11:18:56.971Z,23.60
2022-10-18T11:23:01.791Z,24.30
2022-10-18T11:27:12.817Z,25.00
2022-10-18T11:31:15.995Z,25.70
2022-10-18T11:35:20.430Z,26.30
2022-10-18T11:39:09.772Z,26.80
2022-10-18T11:43:14.722Z,27.30
2022-10-18T11:47:40.413Z,27.80
2022-10-18T11:52:14.617Z,28.30
2022-10-18T11:56:25.149Z,28.80
2022-10-18T12:00:44.995Z,29.30
2022-10-18T12:04:49.002Z,29.90
2022-10-18T12:08:54.778Z,30.00
2022-10-18T12:12:48.370Z,29.90
2022-10-18T12:16:50.969Z,29.80
2022-10-18T12:20:40.164Z,29.90
2022-10-18T12:24:27.755Z,30.20
2022-10-18T12:28:34.722Z,30.40
2022-10-18T12:32:31.492Z,30.60
2022-10-18T12:36:45.938Z,30.70
2022-10-18T12:40:41.445Z,30.50
2022-10-18T12:44:32.662Z,30.10
2022-10-18T12:48:29.198Z,29.60
2022-10-18T12:52:23.284Z,29.50
2022-10-18T12:56:29.869Z,29.70
2022-10-18T13:00:31.809Z,29.60
2022-10-18T13:04:34.202Z,29.60
2022-10-18T13:08:28.113Z,29.90
2022-10-18T13:12:09.958Z,30.30
2022-10-18T13:16:00.828Z,30.70
2022-10-18T13:20:23.993Z,30.90
2022-10-18T13:24:08.835Z,30.30
2022-10-18T13:28:21.395Z,30.20
2022-10-18T13:32:07.354Z,30.40
2022-10-18T13:35:52.313Z,30.50
2022-10-18T13:39:34.286Z,30.20
2022-10-18T13:43:53.533Z,29.60
2022-10-18T13:47:38.632Z,29.50
2022-10-18T13:52:07.393Z,29.50
2022-10-18T13:56:00.154Z,29.30
2022-10-18T14:00:01.340Z,28.80
2022-10-18T14:04:27.145Z,28.20
2022-10-18T14:08:24.391Z,28.00
2022-10-18T14:12:27.620Z,28.40
2022-10-18T14:16:56.150Z,28.50
2022-10-18T14:21:12.217Z,28.70
2022-10-18T14:24:59.090Z,28.10
2022-10-18T14:28:59.071Z,27.10
2022-10-18T14:32:50.236Z,26.20
2022-10-18T14:36:41.860Z,25.20
2022-10-18T14:40:26.717Z,24.50
2022-10-18T14:44:14.496Z,23.90
2022-10-18T14:48:06.020Z,23.60
2022-10-18T14:51:52.704Z,23.20
2022-10-18T14:55:35.612Z,22.90
2022-10-18T14:59:29.610Z,22.70
2022-10-18T15:03:14.862Z,22.40
2022-10-18T15:06:57.638Z,22.10
2022-10-18T15:10:39.501Z,21.90
2022-10-18T15:14:21.935Z,21.60
2022-10-18T15:18:05.363Z,21.40
2022-10-18T15:26:13.337Z,20.90
2022-10-18T15:29:55.449Z,20.70
2022-10-18T15:33:37.348Z,20.50
2022-10-18T15:37:37.752Z,20.30
2022-10-18T15:41:41.615Z,20.10
2022-10-18T15:45:23.525Z,19.90
2022-10-18T15:49:51.292Z,19.70
2022-10-18T15:53:37.221Z,19.50
2022-10-18T15:57:19.222Z,19.30
2022-10-18T16:01:02.024Z,19.10
2022-10-18T16:04:44.096Z,19.00
2022-10-18T16:08:30.492Z,18.90
2022-10-18T16:12:15.149Z,18.70
2022-10-18T16:15:57.123Z,18.60
2022-10-18T16:19:38.964Z,18.50
2022-10-18T16:23:22.730Z,18.40
2022-10-18T16:27:05.051Z,18.20
2022-10-18T16:30:58.809Z,18.10
2022-10-18T16:34:40.702Z,18.00
2022-10-18T16:38:45.895Z,17.80
2022-10-18T16:42:27.749Z,17.70
2022-10-18T16:46:22.333Z,17.50
2022-10-18T16:50:08.307Z,17.40
2022-10-18T16:53:50.342Z,17.30
2022-10-18T16:57:32.214Z,17.20
2022-10-18T17:01:16.658Z,17.10
2022-10-18T17:04:58.638Z,17.00
2022-10-18T17:08:40.572Z,17.00
2022-10-18T17:12:22.434Z,16.90
2022-10-18T17:16:05.396Z,16.80
2022-10-18T17:19:47.264Z,16.70
2022-10-18T17:23:30.411Z,16.60
2022-10-18T17:27:12.267Z,16.50
2022-10-18T17:30:54.111Z,16.40
2022-10-18T17:34:36.173Z,16.30
2022-10-18T17:38:18.069Z,16.30
2022-10-18T17:42:00.296Z,16.20
2022-10-18T17:45:55.659Z,16.10
2022-10-18T17:49:37.496Z,16.10
2022-10-18T17:53:22.849Z,16.00
2022-10-18T17:57:04.978Z,16.00
2022-10-18T18:00:46.829Z,15.90
2022-10-18T18:04:28.686Z,15.90
2022-10-18T18:08:10.593Z,15.80
2022-10-18T18:11:53.744Z,15.80
2022-10-18T18:15:35.712Z,15.80
2022-10-18T18:19:19.115Z,15.80
2022-10-18T18:23:00.996Z,15.70
2022-10-18T18:26:43.449Z,15.70
2022-10-18T18:30:25.325Z,15.80
2022-10-18T18:34:07.202Z,15.70
2022-10-18T18:37:50.710Z,15.70
2022-10-18T18:41:32.966Z,15.60
2022-10-18T18:45:14.859Z,15.60
2022-10-18T18:49:00.048Z,15.50
2022-10-18T18:52:41.944Z,15.40
2022-10-18T18:56:26.643Z,15.40
2022-10-18T19:00:10.488Z,15.30
2022-10-18T19:03:54.480Z,15.20
2022-10-18T19:07:36.675Z,15.20
2022-10-18T19:11:21.232Z,15.10
2022-10-18T19:15:03.215Z,15.00
2022-10-18T19:18:50.965Z,15.00
2022-10-18T19:22:32.830Z,15.00
2022-10-18T19:26:28.607Z,15.00
2022-10-18T19:30:11.658Z,15.00
2022-10-18T19:33:59.604Z,15.00
2022-10-18T19:37:41.789Z,15.00
2022-10-18T19:45:10.571Z,15.00
2022-10-18T19:48:54.159Z,15.10
2022-10-18T19:52:36.362Z,15.10
2022-10-18T19:56:21.219Z,15.10
2022-10-18T20:00:06.702Z,15.10
2022-10-18T20:03:51.698Z,15.10
2022-10-18T20:07:33.538Z,15.10
2022-10-18T20:11:18.291Z,15.10
2022-10-18T20:15:00.189Z,15.10
2022-10-18T20:18:45.271Z,15.10
2022-10-18T20:22:27.305Z,15.00
2022-10-18T20:26:15.549Z,15.00
2022-10-18T20:29:59.978Z,15.00
2022-10-18T20:33:41.993Z,15.10
2022-10-18T20:37:23.867Z,15.00
2022-10-18T20:41:36.485Z,15.10
2022-10-18T20:45:18.416Z,15.10
2022-10-18T20:49:00.394Z,15.10
2022-10-18T20:52:43.689Z,15.10
2022-10-18T20:56:31.477Z,15.10
2022-10-18T21:00:14.123Z,15.10
2022-10-18T21:03:57.701Z,15.10
2022-10-18T21:07:39.612Z,15.10
2022-10-18T21:11:21.845Z,15.20
2022-10-18T21:15:04.054Z,15.20
2022-10-18T21:18:45.916Z,15.20
2022-10-18T21:22:27.863Z,15.20
2022-10-18T21:26:18.265Z,15.20
2022-10-18T21:30:00.209Z,15.20
2022-10-18T21:33:43.125Z,15.20
2022-10-18T21:37:25.029Z,15.20
2022-10-18T21:41:11.986Z,15.10
2022-10-18T21:44:53.850Z,15.20
2022-10-18T21:48:36.192Z,15.20
2022-10-18T21:52:18.101Z,15.20
2022-10-18T21:56:12.758Z,15.20
2022-10-18T21:59:54.612Z,15.20
2022-10-18T22:03:36.889Z,15.20
2022-10-18T22:07:18.857Z,15.30
2022-10-18T22:11:00.855Z,15.20
2022-10-18T22:14:42.723Z,15.20
2022-10-18T22:18:24.601Z,15.20
2022-10-18T22:22:06.549Z,15.20
2022-10-18T22:25:48.786Z,15.20
2022-10-18T22:29:30.662Z,15.20
2022-10-18T22:33:12.521Z,15.20
2022-10-18T22:36:54.421Z,15.10
2022-10-18T22:40:36.261Z,15.10
2022-10-18T22:44:18.083Z,15.10
2022-10-18T22:48:00.037Z,15.10
2022-10-18T22:51:41.939Z,15.10
2022-10-18T22:55:24.172Z,15.10
2022-10-18T22:59:06.068Z,15.00
2022-10-18T23:02:49.932Z,15.00
2022-10-18T23:06:34.357Z,15.00
2022-10-18T23:10:16.686Z,15.00
2022-10-18T23:13:58.579Z,15.00
2022-10-18T23:17:40.428Z,15.00
2022-10-18T23:21:24.427Z,15.00
2022-10-18T23:25:07.245Z,15.00
2022-10-18T23:28:51.328Z,14.90
2022-10-18T23:32:33.466Z,14.90
2022-10-18T23:36:15.929Z,14.90
2022-10-18T23:39:57.771Z,14.90
2022-10-18T23:43:39.789Z,14.90
2022-10-18T23:47:21.707Z,14.80
2022-10-18T23:51:04.594Z,14.80
2022-10-18T23:54:46.673Z,14.80
2022-10-18T23:58:30.957Z,14.80
